createdAt,value
2017-04-29T00:00:23.138Z,0
2017-04-29T00:01:33.505Z,0
2017-04-29T00:02:43.850Z,0
2017-04-29T00:03:53.567Z,0
2017-04-29T00:05:03.911Z,0
2017-04-29T00:06:14.249Z,0
2017-04-29T00:07:24.600Z,0
2017-04-29T00:08:34.927Z,0
2017-04-29T00:09:44.949Z,0
2017-04-29T00:10:55.309Z,0
2017-04-29T00:12:05.641Z,0
2017-04-29T00:13:15.993Z,0
2017-04-29T00:14:26.340Z,0
2017-04-29T00:15:36.668Z,0
2017-04-29T00:16:46.688Z,0
2017-04-29T00:17:57.048Z,0
2017-04-29T00:19:07.409Z,0
2017-04-29T00:20:17.781Z,0
2017-04-29T00:21:27.827Z,0
2017-04-29T00:22:37.847Z,0
2017-04-29T00:23:48.173Z,0
2017-04-29T00:24:58.202Z,0
2017-04-29T00:26:08.288Z,0
2017-04-29T00:27:18.639Z,0
2017-04-29T00:28:28.995Z,0
2017-04-29T00:29:39.027Z,0
2017-04-29T00:30:49.386Z,0
2017-04-29T00:31:59.740Z,0
2017-04-29T00:33:10.096Z,0
2017-04-29T00:34:20.139Z,0
2017-04-29T00:35:30.496Z,0
2017-04-29T00:36:40.861Z,0
2017-04-29T00:37:51.125Z,0
2017-04-29T00:39:01.460Z,0
2017-04-29T00:40:11.499Z,0
2017-04-29T00:41:21.832Z,0
2017-04-29T00:42:32.189Z,0
2017-04-29T00:43:42.518Z,0
2017-04-29T00:44:52.844Z,0
2017-04-29T00:46:03.180Z,0
2017-04-29T00:47:13.212Z,0
2017-04-29T00:48:23.250Z,0
2017-04-29T00:49:33.600Z,0
2017-04-29T00:50:43.938Z,0
2017-04-29T00:51:54.280Z,0
2017-04-29T00:53:04.315Z,0
2017-04-29T00:54:14.653Z,0
2017-04-29T00:55:24.359Z,0
2017-04-29T00:56:34.392Z,0
2017-04-29T00:57:44.107Z,0
2017-04-29T00:58:54.453Z,0
2017-04-29T01:00:04.803Z,0
2017-04-29T01:01:14.821Z,0
2017-04-29T01:02:25.151Z,0
2017-04-29T01:03:35.509Z,0
2017-04-29T01:04:45.857Z,0
2017-04-29T01:05:56.199Z,0
2017-04-29T01:07:06.555Z,0
2017-04-29T01:08:16.933Z,0
2017-04-29T01:09:26.654Z,0
2017-04-29T01:10:36.986Z,0
2017-04-29T01:11:47.324Z,0
2017-04-29T01:12:57.682Z,0
2017-04-29T01:14:07.399Z,0
2017-04-29T01:15:17.752Z,0
2017-04-29T01:16:28.098Z,0
2017-04-29T01:17:38.483Z,0
2017-04-29T01:18:47.898Z,0
2017-04-29T01:19:57.920Z,0
2017-04-29T01:21:08.255Z,0
2017-04-29T01:22:18.285Z,0
2017-04-29T01:23:28.625Z,0
2017-04-29T01:24:38.988Z,0
2017-04-29T01:25:49.338Z,0
2017-04-29T01:26:59.670Z,0
2017-04-29T01:28:09.711Z,0
2017-04-29T01:29:19.742Z,0
2017-04-29T01:30:30.127Z,0
2017-04-29T01:31:40.148Z,0
2017-04-29T01:32:50.188Z,0
2017-04-29T01:34:00.215Z,0
2017-04-29T01:35:10.589Z,0
2017-04-29T01:36:20.931Z,0
2017-04-29T01:37:31.270Z,0
2017-04-29T01:38:41.304Z,0
2017-04-29T01:39:51.345Z,0
2017-04-29T01:41:01.379Z,0
2017-04-29T01:42:11.733Z,0
2017-04-29T01:43:22.084Z,0
2017-04-29T01:44:32.441Z,0
2017-04-29T01:45:42.486Z,0
2017-04-29T01:46:52.858Z,0
2017-04-29T01:48:03.233Z,0
2017-04-29T01:49:13.273Z,0
2017-04-29T01:50:23.294Z,0
2017-04-29T01:51:33.667Z,0
2017-04-29T01:52:44.003Z,0
2017-04-29T01:53:54.045Z,0
2017-04-29T01:55:04.102Z,0
2017-04-29T01:56:14.133Z,0
2017-04-29T01:57:24.152Z,0
2017-04-29T01:58:34.177Z,0
2017-04-29T01:59:44.512Z,0
2017-04-29T02:00:54.530Z,0
2017-04-29T02:02:04.552Z,0
2017-04-29T02:03:14.564Z,0
2017-04-29T02:04:24.617Z,0
2017-04-29T02:05:34.646Z,0
2017-04-29T02:06:44.688Z,0
2017-04-29T02:07:54.403Z,0
2017-04-29T02:09:04.767Z,0
2017-04-29T02:10:15.123Z,0
2017-04-29T02:11:25.460Z,0
2017-04-29T02:12:35.809Z,0
2017-04-29T02:13:45.844Z,0
2017-04-29T02:14:55.882Z,0
2017-04-29T02:16:05.598Z,0
2017-04-29T02:17:15.992Z,0
2017-04-29T02:18:26.031Z,0
2017-04-29T02:19:36.370Z,0
2017-04-29T02:20:46.706Z,0
2017-04-29T02:21:57.051Z,0
2017-04-29T02:23:06.767Z,0
2017-04-29T02:24:17.119Z,0
2017-04-29T02:25:27.454Z,0
2017-04-29T02:26:37.493Z,0
2017-04-29T02:27:47.520Z,0
2017-04-29T02:28:57.871Z,0
2017-04-29T02:30:07.904Z,0
2017-04-29T02:31:18.245Z,0
2017-04-29T02:32:28.279Z,0
2017-04-29T02:33:38.641Z,0
2017-04-29T02:34:48.680Z,0
2017-04-29T02:35:59.031Z,0
2017-04-29T02:37:09.378Z,0
2017-04-29T02:38:19.718Z,0
2017-04-29T02:39:29.445Z,0
2017-04-29T02:40:39.832Z,0
2017-04-29T02:41:50.162Z,0
2017-04-29T02:43:00.187Z,0
2017-04-29T02:44:10.544Z,0
2017-04-29T02:45:20.872Z,0
2017-04-29T02:46:30.887Z,0
2017-04-29T02:47:41.235Z,0
2017-04-29T02:48:51.598Z,0
2017-04-29T02:50:01.651Z,0
2017-04-29T02:51:11.993Z,0
2017-04-29T02:52:22.391Z,0
2017-04-29T02:53:32.783Z,0
2017-04-29T02:54:43.137Z,0
2017-04-29T02:55:53.482Z,0
2017-04-29T02:57:03.508Z,0
2017-04-29T02:58:13.847Z,0
2017-04-29T02:59:23.882Z,0
2017-04-29T03:00:33.915Z,0
2017-04-29T03:01:44.264Z,0
2017-04-29T03:33:00.982Z,0
2017-04-29T03:34:11.308Z,0
2017-04-29T03:35:21.319Z,0
2017-04-29T03:36:31.656Z,0
2017-04-29T03:37:41.695Z,5
2017-04-29T03:38:51.727Z,5
2017-04-29T03:40:02.080Z,5
2017-04-29T03:41:12.113Z,5
2017-04-29T03:42:22.451Z,5
2017-04-29T03:43:32.806Z,5
2017-04-29T03:44:43.156Z,5
2017-04-29T03:45:53.499Z,10
2017-04-29T03:47:03.861Z,10
2017-04-29T03:48:14.208Z,10
2017-04-29T03:49:23.927Z,10
2017-04-29T03:50:34.267Z,10
2017-04-29T03:51:44.345Z,15
2017-04-29T03:52:54.733Z,15
2017-04-29T03:54:05.072Z,15
2017-04-29T03:55:15.089Z,15
2017-04-29T03:56:25.444Z,15
2017-04-29T03:57:35.468Z,20
2017-04-29T03:58:45.813Z,20
2017-04-29T03:59:56.180Z,20
2017-04-29T04:01:06.526Z,25
2017-04-29T04:02:16.566Z,25
2017-04-29T04:03:26.917Z,25
2017-04-29T04:04:36.936Z,25
2017-04-29T04:05:47.274Z,30
2017-04-29T04:06:57.308Z,30
2017-04-29T04:08:07.647Z,30
2017-04-29T04:09:18.004Z,35
2017-04-29T04:10:28.033Z,35
2017-04-29T04:11:38.387Z,35
2017-04-29T04:12:48.443Z,40
2017-04-29T04:13:58.805Z,40
2017-04-29T04:15:08.864Z,45
2017-04-29T04:16:19.205Z,45
2017-04-29T04:17:29.264Z,45
2017-04-29T04:18:39.306Z,45
2017-04-29T04:19:49.643Z,50
2017-04-29T04:20:59.985Z,55
2017-04-29T04:22:10.032Z,55
2017-04-29T04:23:20.060Z,55
2017-04-29T04:24:30.090Z,55
2017-04-29T04:25:40.430Z,65
2017-04-29T04:26:50.765Z,75
2017-04-29T04:28:00.803Z,80
2017-04-29T04:29:11.166Z,70
2017-04-29T04:30:21.510Z,70
2017-04-29T04:31:31.209Z,80
2017-04-29T04:32:41.229Z,65
2017-04-29T04:33:51.590Z,65
2017-04-29T04:35:01.930Z,70
2017-04-29T04:36:11.965Z,70
2017-04-29T04:37:22.293Z,80
2017-04-29T04:38:32.623Z,95
2017-04-29T04:39:42.348Z,135
2017-04-29T04:40:52.702Z,105
2017-04-29T04:42:03.041Z,95
2017-04-29T04:43:13.392Z,115
2017-04-29T04:44:23.735Z,145
2017-04-29T04:45:34.086Z,150
2017-04-29T04:46:44.443Z,165
2017-04-29T04:47:54.473Z,165
2017-04-29T04:49:04.522Z,165
2017-04-29T04:50:14.865Z,170
2017-04-29T04:51:24.906Z,170
2017-04-29T04:52:34.628Z,175
2017-04-29T04:53:44.989Z,175
2017-04-29T04:54:55.011Z,180
2017-04-29T04:56:05.039Z,185
2017-04-29T04:57:15.398Z,180
2017-04-29T04:58:25.757Z,185
2017-04-29T04:59:36.092Z,190
2017-04-29T05:00:46.437Z,190
2017-04-29T05:01:56.797Z,185
2017-04-29T05:03:06.862Z,185
2017-04-29T05:04:17.207Z,175
2017-04-29T05:05:27.550Z,175
2017-04-29T05:06:37.887Z,180
2017-04-29T05:07:48.240Z,175
2017-04-29T05:08:58.597Z,180
2017-04-29T05:10:08.932Z,185
2017-04-29T05:11:19.277Z,190
2017-04-29T05:12:29.667Z,190
2017-04-29T05:13:39.698Z,195
2017-04-29T05:14:49.719Z,200
2017-04-29T05:16:00.081Z,215
2017-04-29T05:17:10.413Z,215
2017-04-29T05:18:20.760Z,215
2017-04-29T05:19:31.098Z,220
2017-04-29T05:20:40.864Z,220
2017-04-29T05:21:51.212Z,225
2017-04-29T05:23:01.599Z,230
2017-04-29T05:24:11.626Z,235
2017-04-29T05:25:21.967Z,240
2017-04-29T05:26:31.991Z,235
2017-04-29T05:27:42.034Z,240
2017-04-29T05:28:52.386Z,250
2017-04-29T05:30:02.739Z,250
2017-04-29T05:31:12.767Z,260
2017-04-29T05:32:22.817Z,260
2017-04-29T05:33:33.169Z,270
2017-04-29T05:34:43.514Z,270
2017-04-29T05:35:53.864Z,275
2017-04-29T05:37:03.917Z,275
2017-04-29T05:38:14.261Z,280
2017-04-29T05:39:24.289Z,280
2017-04-29T05:40:34.312Z,270
2017-04-29T05:41:44.354Z,275
2017-04-29T05:42:54.700Z,270
2017-04-29T05:44:05.054Z,270
2017-04-29T05:45:15.400Z,265
2017-04-29T05:46:25.436Z,270
2017-04-29T05:47:35.458Z,265
2017-04-29T05:48:45.501Z,260
2017-04-29T05:49:55.846Z,245
2017-04-29T05:51:06.184Z,210
2017-04-29T05:52:16.212Z,195
2017-04-29T05:53:26.239Z,200
2017-04-29T05:54:36.594Z,200
2017-04-29T05:55:46.946Z,205
2017-04-29T05:56:57.295Z,205
2017-04-29T05:58:07.651Z,210
2017-04-29T05:59:18.002Z,210
2017-04-29T06:00:28.027Z,210
2017-04-29T06:01:38.365Z,215
2017-04-29T06:02:48.719Z,215
2017-04-29T06:03:59.048Z,210
2017-04-29T06:05:09.088Z,210
2017-04-29T06:06:19.118Z,210
2017-04-29T06:07:29.475Z,215
2017-04-29T06:08:39.835Z,225
2017-04-29T06:09:49.882Z,230
2017-04-29T06:10:59.612Z,240
2017-04-29T06:12:09.978Z,250
2017-04-29T06:13:20.317Z,250
2017-04-29T06:14:30.669Z,245
2017-04-29T06:15:40.716Z,245
2017-04-29T06:16:51.062Z,245
2017-04-29T06:18:01.427Z,240
2017-04-29T06:19:11.490Z,240
2017-04-29T06:20:21.826Z,240
2017-04-29T06:21:32.164Z,230
2017-04-29T06:22:41.890Z,230
2017-04-29T06:23:52.257Z,235
2017-04-29T06:25:02.297Z,235
2017-04-29T06:26:12.647Z,235
2017-04-29T06:27:22.992Z,235
2017-04-29T06:28:33.342Z,230
2017-04-29T06:29:43.678Z,230
2017-04-29T06:30:54.008Z,230
2017-04-29T06:32:04.034Z,235
2017-04-29T06:33:13.752Z,235
2017-04-29T06:34:24.090Z,235
2017-04-29T06:35:34.434Z,235
2017-04-29T06:36:44.784Z,245
2017-04-29T06:37:54.816Z,235
2017-04-29T06:39:04.849Z,235
2017-04-29T06:40:14.884Z,235
2017-04-29T06:41:25.226Z,235
2017-04-29T06:42:35.323Z,235
2017-04-29T06:43:45.683Z,240
2017-04-29T06:44:56.026Z,245
2017-04-29T06:46:06.613Z,250
2017-04-29T06:47:16.644Z,245
2017-04-29T06:48:26.699Z,240
2017-04-29T06:49:37.055Z,235
2017-04-29T06:50:46.788Z,230
2017-04-29T06:51:57.131Z,230
2017-04-29T06:53:07.470Z,230
2017-04-29T06:54:17.808Z,230
2017-04-29T06:55:28.153Z,235
2017-04-29T06:56:38.499Z,235
2017-04-29T06:57:48.846Z,235
2017-04-29T06:58:59.213Z,230
2017-04-29T07:00:09.243Z,230
2017-04-29T07:01:19.297Z,225
2017-04-29T07:02:29.652Z,225
2017-04-29T07:03:40.008Z,225
2017-04-29T07:04:50.346Z,225
2017-04-29T07:06:00.706Z,230
2017-04-29T07:07:10.750Z,230
2017-04-29T07:08:21.099Z,230
2017-04-29T07:09:31.132Z,230
2017-04-29T07:10:41.469Z,230
2017-04-29T07:11:52.055Z,230
2017-04-29T07:13:02.133Z,230
2017-04-29T07:14:12.196Z,230
2017-04-29T07:15:22.541Z,230
2017-04-29T07:16:32.886Z,230
2017-04-29T07:17:43.226Z,235
2017-04-29T07:18:53.573Z,235
2017-04-29T07:20:03.621Z,235
2017-04-29T07:21:13.666Z,235
2017-04-29T07:22:24.022Z,240
2017-04-29T07:23:34.374Z,240
2017-04-29T07:24:44.718Z,245
2017-04-29T07:25:55.066Z,245
2017-04-29T07:27:05.415Z,240
2017-04-29T07:28:15.791Z,240
2017-04-29T07:29:25.854Z,235
2017-04-29T07:30:36.217Z,235
2017-04-29T07:31:46.591Z,235
2017-04-29T07:32:56.949Z,235
2017-04-29T07:34:07.290Z,245
2017-04-29T07:35:17.317Z,240
2017-04-29T07:36:27.676Z,235
2017-04-29T07:37:38.035Z,230
2017-04-29T07:38:47.770Z,235
2017-04-29T07:39:58.128Z,235
2017-04-29T07:41:08.466Z,235
2017-04-29T07:42:19.055Z,235
2017-04-29T07:43:29.105Z,235
2017-04-29T07:44:39.189Z,235
2017-04-29T07:45:49.536Z,235
2017-04-29T07:46:59.906Z,235
2017-04-29T07:48:10.267Z,240
2017-04-29T07:49:20.640Z,240
2017-04-29T07:50:30.688Z,245
2017-04-29T07:51:41.045Z,245
2017-04-29T07:52:51.441Z,240
2017-04-29T07:54:01.828Z,240
2017-04-29T07:55:12.211Z,240
2017-04-29T07:56:22.561Z,240
2017-04-29T07:57:32.965Z,245
2017-04-29T07:58:43.010Z,245
2017-04-29T07:59:53.355Z,245
2017-04-29T08:01:03.714Z,245
2017-04-29T08:02:14.069Z,245
2017-04-29T08:03:24.108Z,250
2017-04-29T08:04:34.481Z,245
2017-04-29T08:05:44.837Z,245
2017-04-29T08:06:54.898Z,240
2017-04-29T08:08:05.244Z,240
2017-04-29T08:09:15.285Z,245
2017-04-29T08:10:25.322Z,245
2017-04-29T08:11:35.689Z,245
2017-04-29T08:12:46.069Z,245
2017-04-29T08:13:56.420Z,250
2017-04-29T08:15:06.785Z,250
2017-04-29T08:16:17.129Z,250
2017-04-29T08:17:27.474Z,260
2017-04-29T08:18:37.818Z,265
2017-04-29T08:19:47.851Z,255
2017-04-29T08:20:58.217Z,260
2017-04-29T08:22:08.561Z,260
2017-04-29T08:23:18.915Z,255
2017-04-29T08:24:29.285Z,230
2017-04-29T08:25:39.330Z,195
2017-04-29T08:26:49.364Z,255
2017-04-29T08:27:59.420Z,270
2017-04-29T08:29:09.778Z,280
2017-04-29T08:30:20.141Z,295
2017-04-29T08:31:30.178Z,310
2017-04-29T08:32:40.532Z,310
2017-04-29T08:33:50.582Z,295
2017-04-29T08:35:00.938Z,230
2017-04-29T08:36:10.982Z,220
2017-04-29T08:37:21.037Z,200
2017-04-29T08:38:31.073Z,200
2017-04-29T08:39:41.442Z,205
2017-04-29T08:40:51.803Z,230
2017-04-29T08:42:02.155Z,230
2017-04-29T08:43:12.519Z,280
2017-04-29T08:44:22.571Z,310
2017-04-29T08:45:33.012Z,250
2017-04-29T08:46:43.368Z,280
2017-04-29T08:47:53.761Z,245
2017-04-29T08:49:03.812Z,195
2017-04-29T08:50:13.844Z,210
2017-04-29T08:51:24.196Z,210
2017-04-29T08:52:34.569Z,225
2017-04-29T08:53:44.928Z,235
2017-04-29T08:54:55.303Z,220
2017-04-29T08:56:05.346Z,200
2017-04-29T08:57:15.373Z,190
2017-04-29T08:58:25.710Z,175
2017-04-29T08:59:36.055Z,175
2017-04-29T09:00:46.416Z,185
2017-04-29T09:01:56.455Z,195
2017-04-29T09:03:06.835Z,260
2017-04-29T09:04:17.203Z,200
2017-04-29T09:05:27.562Z,220
2017-04-29T09:06:37.933Z,285
2017-04-29T09:07:48.307Z,285
2017-04-29T09:08:58.662Z,285
2017-04-29T09:10:09.022Z,265
2017-04-29T09:11:19.369Z,285
2017-04-29T09:12:29.715Z,280
2017-04-29T09:13:40.071Z,280
2017-04-29T09:14:50.417Z,290
2017-04-29T09:16:00.776Z,310
2017-04-29T09:17:11.136Z,325
2017-04-29T09:18:21.485Z,325
2017-04-29T09:19:31.919Z,320
2017-04-29T09:20:42.332Z,245
2017-04-29T09:21:52.397Z,295
2017-04-29T09:23:02.455Z,285
2017-04-29T09:24:12.810Z,200
2017-04-29T09:25:22.857Z,250
2017-04-29T09:26:32.896Z,285
2017-04-29T09:27:43.251Z,280
2017-04-29T09:28:53.313Z,285
2017-04-29T09:30:03.666Z,305
2017-04-29T09:31:14.014Z,315
2017-04-29T09:32:24.058Z,320
2017-04-29T09:33:34.420Z,255
2017-04-29T09:34:44.759Z,275
2017-04-29T09:35:55.120Z,230
2017-04-29T09:37:04.885Z,205
2017-04-29T09:38:15.249Z,265
2017-04-29T09:39:25.611Z,290
2017-04-29T09:40:35.959Z,275
2017-04-29T09:41:46.312Z,305
2017-04-29T09:42:56.355Z,295
2017-04-29T09:44:06.399Z,190
2017-04-29T09:45:16.120Z,180
2017-04-29T09:46:26.162Z,225
2017-04-29T09:47:36.216Z,280
2017-04-29T09:48:46.564Z,285
2017-04-29T09:49:56.919Z,290
2017-04-29T09:51:07.276Z,290
2017-04-29T09:52:17.664Z,300
2017-04-29T09:53:28.014Z,290
2017-04-29T09:54:38.398Z,295
2017-04-29T09:55:48.749Z,290
2017-04-29T09:56:58.807Z,285
2017-04-29T09:58:09.163Z,280
2017-04-29T09:59:19.519Z,275
2017-04-29T10:00:29.865Z,275
2017-04-29T10:01:40.267Z,280
2017-04-29T10:02:50.638Z,295
2017-04-29T10:04:00.988Z,300
2017-04-29T10:05:11.017Z,310
2017-04-29T10:06:21.040Z,210
2017-04-29T10:07:31.139Z,205
2017-04-29T10:08:41.554Z,310
2017-04-29T10:09:51.592Z,310
2017-04-29T10:11:01.950Z,310
2017-04-29T10:12:12.291Z,310
2017-04-29T10:13:22.336Z,315
2017-04-29T10:14:32.695Z,325
2017-04-29T10:15:42.733Z,330
2017-04-29T10:16:52.459Z,325
2017-04-29T10:18:02.832Z,355
2017-04-29T10:19:13.255Z,310
2017-04-29T10:20:23.328Z,360
2017-04-29T10:21:33.678Z,310
2017-04-29T10:22:44.092Z,345
2017-04-29T10:23:54.465Z,405
2017-04-29T10:25:04.826Z,380
2017-04-29T10:26:15.171Z,405
2017-04-29T10:27:25.539Z,335
2017-04-29T10:28:35.906Z,280
2017-04-29T10:29:46.255Z,270
2017-04-29T10:30:56.310Z,235
2017-04-29T10:32:06.663Z,230
2017-04-29T10:33:16.718Z,230
2017-04-29T10:34:27.089Z,240
2017-04-29T10:35:37.431Z,255
2017-04-29T10:36:47.774Z,255
2017-04-29T10:37:58.140Z,265
2017-04-29T10:39:07.882Z,270
2017-04-29T10:40:18.255Z,270
2017-04-29T10:41:28.619Z,265
2017-04-29T10:42:38.981Z,270
2017-04-29T10:43:49.034Z,280
2017-04-29T10:44:59.383Z,285
2017-04-29T10:46:09.463Z,350
2017-04-29T10:47:19.521Z,265
2017-04-29T10:48:29.875Z,260
2017-04-29T10:49:39.923Z,265
2017-04-29T10:50:49.960Z,270
2017-04-29T10:52:00.320Z,285
2017-04-29T10:53:10.053Z,265
2017-04-29T10:54:20.393Z,265
2017-04-29T10:55:30.769Z,280
2017-04-29T10:56:41.118Z,380
2017-04-29T10:57:51.504Z,380
2017-04-29T10:59:01.552Z,360
2017-04-29T11:00:11.902Z,260
2017-04-29T11:01:22.261Z,265
2017-04-29T11:02:32.626Z,320
2017-04-29T11:03:42.976Z,395
2017-04-29T11:04:53.337Z,405
2017-04-29T11:06:03.696Z,325
2017-04-29T11:07:14.055Z,310
2017-04-29T11:08:24.127Z,325
2017-04-29T11:09:33.866Z,380
2017-04-29T11:10:44.227Z,450
2017-04-29T11:11:54.610Z,450
2017-04-29T11:13:04.971Z,445
2017-04-29T11:14:15.325Z,435
2017-04-29T11:15:25.667Z,425
2017-04-29T11:16:35.707Z,395
2017-04-29T11:17:46.063Z,395
2017-04-29T11:18:56.117Z,355
2017-04-29T11:20:06.478Z,350
2017-04-29T11:21:16.818Z,325
2017-04-29T11:22:27.173Z,355
2017-04-29T11:23:37.209Z,355
2017-04-29T11:24:47.568Z,355
2017-04-29T11:25:57.941Z,360
2017-04-29T11:27:08.297Z,355
2017-04-29T11:28:18.654Z,400
2017-04-29T11:29:29.015Z,350
2017-04-29T11:30:39.369Z,360
2017-04-29T11:31:49.743Z,360
2017-04-29T11:33:00.157Z,350
2017-04-29T11:34:10.518Z,375
2017-04-29T11:35:20.865Z,405
2017-04-29T11:36:31.212Z,460
2017-04-29T11:37:41.249Z,380
2017-04-29T11:38:51.291Z,365
2017-04-29T11:40:01.340Z,355
2017-04-29T11:41:11.695Z,325
2017-04-29T11:42:22.060Z,335
2017-04-29T11:43:32.433Z,315
2017-04-29T11:44:42.792Z,295
2017-04-29T11:45:52.521Z,300
2017-04-29T11:47:02.567Z,345
2017-04-29T11:48:12.923Z,320
2017-04-29T11:49:23.305Z,340
2017-04-29T11:50:33.379Z,300
2017-04-29T11:51:43.738Z,250
2017-04-29T11:52:53.772Z,240
2017-04-29T11:54:04.168Z,240
2017-04-29T11:55:14.543Z,305
2017-04-29T11:56:24.596Z,305
2017-04-29T11:57:34.641Z,280
2017-04-29T11:58:45.059Z,250
2017-04-29T11:59:55.391Z,350
2017-04-29T12:01:05.422Z,345
2017-04-29T12:02:15.779Z,320
2017-04-29T12:03:25.836Z,240
2017-04-29T12:04:36.189Z,305
2017-04-29T12:05:46.549Z,225
2017-04-29T12:06:56.944Z,335
2017-04-29T12:08:07.343Z,365
2017-04-29T12:09:17.713Z,350
2017-04-29T12:10:27.752Z,380
2017-04-29T12:11:38.109Z,390
2017-04-29T12:12:48.145Z,400
2017-04-29T12:13:58.219Z,410
2017-04-29T12:15:08.590Z,415
2017-04-29T12:16:18.947Z,375
2017-04-29T12:17:29.307Z,325
2017-04-29T12:18:39.700Z,415
2017-04-29T12:19:49.995Z,405
2017-04-29T12:20:59.717Z,400
2017-04-29T12:22:10.087Z,295
2017-04-29T12:23:20.447Z,305
2017-04-29T12:24:30.817Z,405
2017-04-29T12:25:40.569Z,405
2017-04-29T12:26:50.952Z,400
2017-04-29T12:28:00.721Z,385
2017-04-29T12:29:11.080Z,375
2017-04-29T12:30:21.435Z,335
2017-04-29T12:31:31.492Z,350
2017-04-29T12:32:41.855Z,265
2017-04-29T12:33:52.266Z,310
2017-04-29T12:35:02.655Z,295
2017-04-29T12:36:13.014Z,245
2017-04-29T12:37:23.055Z,240
2017-04-29T12:38:33.434Z,240
2017-04-29T12:39:43.474Z,240
2017-04-29T12:40:53.824Z,255
2017-04-29T12:42:04.193Z,260
2017-04-29T12:43:14.587Z,275
2017-04-29T12:44:24.969Z,280
2017-04-29T12:45:35.387Z,325
2017-04-29T12:46:45.758Z,305
2017-04-29T12:47:56.377Z,315
2017-04-29T12:49:06.766Z,335
2017-04-29T12:50:16.804Z,340
2017-04-29T12:51:27.170Z,395
2017-04-29T12:52:37.534Z,360
2017-04-29T12:53:47.888Z,320
2017-04-29T12:54:57.940Z,320
2017-04-29T12:56:07.997Z,330
2017-04-29T12:57:18.041Z,355
2017-04-29T12:58:28.403Z,350
2017-04-29T12:59:38.769Z,320
2017-04-29T13:00:49.162Z,410
2017-04-29T13:01:59.598Z,320
2017-04-29T13:03:09.962Z,310
2017-04-29T13:04:20.317Z,305
2017-04-29T13:05:30.443Z,295
2017-04-29T13:06:40.498Z,325
2017-04-29T13:07:50.861Z,315
2017-04-29T13:09:01.284Z,270
2017-04-29T13:10:11.044Z,250
2017-04-29T13:11:21.126Z,245
2017-04-29T13:12:31.497Z,245
2017-04-29T13:13:41.868Z,255
2017-04-29T13:14:52.210Z,315
2017-04-29T13:16:02.556Z,250
2017-04-29T13:17:12.927Z,245
2017-04-29T13:18:23.274Z,240
2017-04-29T13:19:33.633Z,240
2017-04-29T13:20:43.683Z,230
2017-04-29T13:21:54.036Z,225
2017-04-29T13:23:04.068Z,220
2017-04-29T13:24:14.454Z,210
2017-04-29T13:25:24.496Z,215
2017-04-29T13:26:34.888Z,260
2017-04-29T13:27:45.247Z,215
2017-04-29T13:28:55.613Z,220
2017-04-29T13:30:05.980Z,230
2017-04-29T13:31:16.342Z,280
2017-04-29T13:32:26.745Z,225
2017-04-29T13:33:37.096Z,235
2017-04-29T13:34:47.502Z,245
2017-04-29T13:35:57.869Z,240
2017-04-29T13:37:07.904Z,245
2017-04-29T13:38:18.272Z,245
2017-04-29T13:39:28.648Z,245
2017-04-29T13:40:39.020Z,240
2017-04-29T13:41:49.401Z,235
2017-04-29T13:42:59.774Z,235
2017-04-29T13:44:10.142Z,240
2017-04-29T13:45:20.514Z,235
2017-04-29T13:46:30.873Z,240
2017-04-29T13:47:41.236Z,240
2017-04-29T13:48:51.946Z,245
2017-04-29T13:50:01.679Z,245
2017-04-29T13:51:12.051Z,245
2017-04-29T13:52:22.423Z,245
2017-04-29T13:53:32.782Z,270
2017-04-29T13:54:43.144Z,240
2017-04-29T13:55:53.246Z,235
2017-04-29T13:57:03.613Z,235
2017-04-29T13:58:13.351Z,235
2017-04-29T13:59:23.714Z,235
2017-04-29T14:00:34.073Z,240
2017-04-29T14:01:43.801Z,250
2017-04-29T14:02:53.863Z,245
2017-04-29T14:04:04.236Z,250
2017-04-29T14:05:14.287Z,250
2017-04-29T14:06:24.637Z,240
2017-04-29T14:07:34.992Z,245
2017-04-29T14:08:45.028Z,235
2017-04-29T14:09:55.401Z,230
2017-04-29T14:11:05.448Z,225
2017-04-29T14:12:15.817Z,200
2017-04-29T14:13:26.190Z,190
2017-04-29T14:14:36.542Z,180
2017-04-29T14:15:46.588Z,170
2017-04-29T14:16:56.957Z,160
2017-04-29T14:18:07.017Z,145
2017-04-29T14:19:17.381Z,145
2017-04-29T14:20:27.773Z,140
2017-04-29T14:21:38.124Z,135
2017-04-29T14:22:48.493Z,135
2017-04-29T14:23:58.553Z,135
2017-04-29T14:25:08.943Z,135
2017-04-29T14:26:18.992Z,140
2017-04-29T14:27:29.356Z,140
2017-04-29T14:28:39.404Z,140
2017-04-29T14:29:49.479Z,145
2017-04-29T14:30:59.580Z,130
2017-04-29T14:32:09.632Z,125
2017-04-29T14:33:19.071Z,115
2017-04-29T14:34:29.124Z,110
2017-04-29T14:35:39.501Z,105
2017-04-29T14:36:49.868Z,100
2017-04-29T14:37:59.933Z,95
2017-04-29T14:39:09.346Z,85
2017-04-29T14:40:19.386Z,80
2017-04-29T14:41:29.740Z,75
2017-04-29T14:42:40.107Z,75
2017-04-29T14:43:50.489Z,75
2017-04-29T14:45:00.865Z,75
2017-04-29T14:46:10.923Z,70
2017-04-29T14:47:21.287Z,70
2017-04-29T14:48:31.674Z,70
2017-04-29T14:49:42.027Z,70
2017-04-29T14:50:52.381Z,70
2017-04-29T14:52:02.773Z,70
2017-04-29T14:53:13.131Z,70
2017-04-29T14:54:23.509Z,70
2017-04-29T14:55:33.553Z,70
2017-04-29T14:56:43.902Z,70
2017-04-29T14:57:53.984Z,70
2017-04-29T14:59:04.355Z,75
2017-04-29T15:00:14.082Z,75
2017-04-29T15:01:24.457Z,75
2017-04-29T15:02:34.840Z,75
2017-04-29T15:03:44.882Z,75
2017-04-29T15:04:54.619Z,75
2017-04-29T15:06:04.998Z,80
2017-04-29T15:07:15.041Z,80
2017-04-29T15:08:25.090Z,85
2017-04-29T15:09:35.466Z,90
2017-04-29T15:10:45.577Z,95
2017-04-29T15:11:55.610Z,100
2017-04-29T15:13:06.219Z,105
2017-04-29T15:14:16.587Z,110
2017-04-29T15:15:26.656Z,115
2017-04-29T15:16:37.000Z,145
2017-04-29T15:17:46.804Z,130
2017-04-29T15:18:56.867Z,135
2017-04-29T15:20:07.235Z,140
2017-04-29T15:21:17.584Z,145
2017-04-29T15:22:27.936Z,150
2017-04-29T15:23:38.291Z,160
2017-04-29T15:24:48.653Z,170
2017-04-29T15:25:59.015Z,165
2017-04-29T15:27:09.068Z,165
2017-04-29T15:28:19.417Z,175
2017-04-29T15:29:30.086Z,175
2017-04-29T15:30:40.451Z,185
2017-04-29T15:31:50.803Z,210
2017-04-29T15:33:01.435Z,220
2017-04-29T15:34:11.792Z,225
2017-04-29T15:35:22.152Z,225
2017-04-29T15:36:32.250Z,215
2017-04-29T15:37:42.634Z,225
2017-04-29T15:38:53.007Z,235
2017-04-29T15:40:03.390Z,215
2017-04-29T15:41:13.547Z,210
2017-04-29T15:42:23.608Z,215
2017-04-29T15:43:33.988Z,205
2017-04-29T15:44:44.364Z,195
2017-04-29T15:45:54.750Z,210
2017-04-29T15:47:04.844Z,185
2017-04-29T15:48:14.937Z,195
2017-04-29T15:49:25.317Z,190
2017-04-29T15:50:35.412Z,195
2017-04-29T15:51:45.812Z,190
2017-04-29T15:52:56.192Z,180
2017-04-29T15:54:06.575Z,190
2017-04-29T15:55:16.968Z,180
2017-04-29T15:56:27.318Z,185
2017-04-29T15:57:37.690Z,180
2017-04-29T15:58:48.109Z,170
2017-04-29T15:59:58.501Z,175
2017-04-29T16:01:08.862Z,170
2017-04-29T16:02:19.204Z,165
2017-04-29T16:03:29.261Z,160
2017-04-29T16:04:39.611Z,160
2017-04-29T16:05:49.975Z,155
2017-04-29T16:07:00.359Z,150
2017-04-29T16:08:10.726Z,145
2017-04-29T16:09:21.104Z,145
2017-04-29T16:10:31.522Z,145
2017-04-29T16:11:41.986Z,140
2017-04-29T16:12:51.740Z,140
2017-04-29T16:14:02.114Z,135
2017-04-29T16:15:12.503Z,135
2017-04-29T16:16:22.951Z,135
2017-04-29T16:17:33.320Z,130
2017-04-29T16:18:43.707Z,125
2017-04-29T16:19:54.093Z,120
2017-04-29T16:21:04.193Z,120
2017-04-29T16:22:14.564Z,115
2017-04-29T16:23:24.973Z,110
2017-04-29T16:24:35.050Z,110
2017-04-29T16:25:45.877Z,100
2017-04-29T16:26:56.265Z,100
2017-04-29T16:28:06.360Z,95
2017-04-29T16:29:16.738Z,95
2017-04-29T16:30:27.345Z,90
2017-04-29T16:31:37.400Z,90
2017-04-29T16:32:47.511Z,85
2017-04-29T16:33:57.888Z,85
2017-04-29T16:35:08.295Z,80
2017-04-29T16:36:18.652Z,80
2017-04-29T16:37:29.001Z,75
2017-04-29T16:38:39.417Z,75
2017-04-29T16:39:49.803Z,70
2017-04-29T16:41:00.171Z,70
2017-04-29T16:42:10.557Z,65
2017-04-29T16:43:20.964Z,65
2017-04-29T16:44:31.363Z,65
2017-04-29T16:45:41.749Z,65
2017-04-29T16:46:52.122Z,70
2017-04-29T16:48:02.192Z,70
2017-04-29T16:49:12.570Z,75
2017-04-29T16:50:22.910Z,75
2017-04-29T16:51:32.647Z,75
2017-04-29T16:52:43.049Z,75
2017-04-29T16:53:53.114Z,75
2017-04-29T16:55:03.505Z,75